sensor_id;sensor_type;location;lat;lon;timestamp;P1;durP1;ratioP1;P2;durP2;ratioP2
58689;SDS011;44470;53.206;-6.106;2023-05-10T00:00:56;2.50;;;1.23;;
58689;SDS011;44470;53.206;-6.106;2023-05-10T00:03:22;5.35;;;1.17;;
58689;SDS011;44470;53.206;-6.106;2023-05-10T00:05:47;3.42;;;0.85;;
58689;SDS011;44470;53.206;-6.106;2023-05-10T00:08:13;2.25;;;0.98;;
58689;SDS011;44470;53.206;-6.106;2023-05-10T00:10:38;1.08;;;0.90;;
58689;SDS011;44470;53.206;-6.106;2023-05-10T00:13:04;2.72;;;1.25;;
58689;SDS011;44470;53.206;-6.106;2023-05-10T00:15:29;1.38;;;1.00;;
58689;SDS011;44470;53.206;-6.106;2023-05-10T00:17:59;1.33;;;1.23;;
58689;SDS011;44470;53.206;-6.106;2023-05-10T00:20:25;3.08;;;1.10;;
58689;SDS011;44470;53.206;-6.106;2023-05-10T00:22:50;2.88;;;1.15;;
58689;SDS011;44470;53.206;-6.106;2023-05-10T00:25:16;1.20;;;0.98;;
58689;SDS011;44470;53.206;-6.106;2023-05-10T00:27:41;6.07;;;1.15;;
58689;SDS011;44470;53.206;-6.106;2023-05-10T00:30:07;2.78;;;1.10;;
58689;SDS011;44470;53.206;-6.106;2023-05-10T00:32:34;2.53;;;0.98;;
58689;SDS011;44470;53.206;-6.106;2023-05-10T00:34:59;2.05;;;1.27;;
58689;SDS011;44470;53.206;-6.106;2023-05-10T00:37:25;4.00;;;1.77;;
58689;SDS011;44470;53.206;-6.106;2023-05-10T00:39:51;3.92;;;1.15;;
58689;SDS011;44470;53.206;-6.106;2023-05-10T00:42:16;2.47;;;0.90;;
58689;SDS011;44470;53.206;-6.106;2023-05-10T00:44:42;3.40;;;1.10;;
58689;SDS011;44470;53.206;-6.106;2023-05-10T00:47:08;3.70;;;1.27;;
58689;SDS011;44470;53.206;-6.106;2023-05-10T00:49:34;1.88;;;0.90;;
58689;SDS011;44470;53.206;-6.106;2023-05-10T00:52:00;1.00;;;0.90;;
58689;SDS011;44470;53.206;-6.106;2023-05-10T00:54:27;1.60;;;0.95;;
58689;SDS011;44470;53.206;-6.106;2023-05-10T00:56:52;2.50;;;1.20;;
58689;SDS011;44470;53.206;-6.106;2023-05-10T00:59:18;3.97;;;0.95;;
58689;SDS011;44470;53.206;-6.106;2023-05-10T01:01:44;2.78;;;1.30;;
58689;SDS011;44470;53.206;-6.106;2023-05-10T01:04:11;0.88;;;0.77;;
58689;SDS011;44470;53.206;-6.106;2023-05-10T01:06:38;1.10;;;0.85;;
58689;SDS011;44470;53.206;-6.106;2023-05-10T01:09:05;1.05;;;0.77;;
58689;SDS011;44470;53.206;-6.106;2023-05-10T01:11:33;2.30;;;1.15;;
58689;SDS011;44470;53.206;-6.106;2023-05-10T01:14:01;1.05;;;0.88;;
58689;SDS011;44470;53.206;-6.106;2023-05-10T01:16:27;2.17;;;0.80;;
58689;SDS011;44470;53.206;-6.106;2023-05-10T01:18:54;0.93;;;0.88;;
58689;SDS011;44470;53.206;-6.106;2023-05-10T01:21:35;0.75;;;0.73;;
58689;SDS011;44470;53.206;-6.106;2023-05-10T01:24:12;1.55;;;0.88;;
58689;SDS011;44470;53.206;-6.106;2023-05-10T01:35:38;0.95;;;0.95;;
58689;SDS011;44470;53.206;-6.106;2023-05-10T01:38:17;1.10;;;0.80;;
58689;SDS011;44470;53.206;-6.106;2023-05-10T01:46:20;1.42;;;0.77;;
58689;SDS011;44470;53.206;-6.106;2023-05-10T01:48:53;3.42;;;0.80;;
58689;SDS011;44470;53.206;-6.106;2023-05-10T01:51:23;0.70;;;0.70;;
58689;SDS011;44470;53.206;-6.106;2023-05-10T01:53:53;1.48;;;1.35;;
58689;SDS011;44470;53.206;-6.106;2023-05-10T01:56:24;1.40;;;0.90;;
58689;SDS011;44470;53.206;-6.106;2023-05-10T01:58:51;1.17;;;0.68;;
58689;SDS011;44470;53.206;-6.106;2023-05-10T02:01:19;0.85;;;0.77;;
58689;SDS011;44470;53.206;-6.106;2023-05-10T02:03:46;0.70;;;0.57;;
58689;SDS011;44470;53.206;-6.106;2023-05-10T02:06:12;1.05;;;0.80;;
58689;SDS011;44470;53.206;-6.106;2023-05-10T02:08:39;1.17;;;0.73;;
58689;SDS011;44470;53.206;-6.106;2023-05-10T02:11:06;2.53;;;1.05;;
58689;SDS011;44470;53.206;-6.106;2023-05-10T02:13:32;0.45;;;0.32;;
58689;SDS011;44470;53.206;-6.106;2023-05-10T02:16:01;0.95;;;0.70;;
58689;SDS011;44470;53.206;-6.106;2023-05-10T02:18:28;1.20;;;1.00;;
58689;SDS011;44470;53.206;-6.106;2023-05-10T02:20:56;0.98;;;0.70;;
58689;SDS011;44470;53.206;-6.106;2023-05-10T02:23:24;1.58;;;0.45;;
58689;SDS011;44470;53.206;-6.106;2023-05-10T02:25:51;0.55;;;0.50;;
58689;SDS011;44470;53.206;-6.106;2023-05-10T02:28:20;1.17;;;0.63;;
58689;SDS011;44470;53.206;-6.106;2023-05-10T02:30:47;0.77;;;0.77;;
58689;SDS011;44470;53.206;-6.106;2023-05-10T02:33:13;1.00;;;0.57;;
58689;SDS011;44470;53.206;-6.106;2023-05-10T02:35:39;1.63;;;0.75;;
58689;SDS011;44470;53.206;-6.106;2023-05-10T02:38:07;1.13;;;0.63;;
58689;SDS011;44470;53.206;-6.106;2023-05-10T02:40:34;0.73;;;0.40;;
58689;SDS011;44470;53.206;-6.106;2023-05-10T02:43:01;1.35;;;0.70;;
58689;SDS011;44470;53.206;-6.106;2023-05-10T02:45:30;0.93;;;0.77;;
58689;SDS011;44470;53.206;-6.106;2023-05-10T02:47:57;0.77;;;0.68;;
58689;SDS011;44470;53.206;-6.106;2023-05-10T02:50:24;1.10;;;0.60;;
58689;SDS011;44470;53.206;-6.106;2023-05-10T02:52:53;2.38;;;0.70;;
58689;SDS011;44470;53.206;-6.106;2023-05-10T02:55:25;1.30;;;0.63;;
58689;SDS011;44470;53.206;-6.106;2023-05-10T02:58:01;1.40;;;0.60;;
58689;SDS011;44470;53.206;-6.106;2023-05-10T03:00:27;1.02;;;0.70;;
58689;SDS011;44470;53.206;-6.106;2023-05-10T03:02:53;1.02;;;0.47;;
58689;SDS011;44470;53.206;-6.106;2023-05-10T03:05:20;1.00;;;0.65;;
58689;SDS011;44470;53.206;-6.106;2023-05-10T03:07:46;0.45;;;0.45;;
58689;SDS011;44470;53.206;-6.106;2023-05-10T03:10:12;0.95;;;0.57;;
58689;SDS011;44470;53.206;-6.106;2023-05-10T03:15:47;1.33;;;0.70;;
58689;SDS011;44470;53.206;-6.106;2023-05-10T03:18:22;0.95;;;0.80;;
58689;SDS011;44470;53.206;-6.106;2023-05-10T03:20:56;1.25;;;0.68;;
58689;SDS011;44470;53.206;-6.106;2023-05-10T03:23:34;0.95;;;0.60;;
58689;SDS011;44470;53.206;-6.106;2023-05-10T03:26:04;2.53;;;0.85;;
58689;SDS011;44470;53.206;-6.106;2023-05-10T03:28:33;1.38;;;0.90;;
58689;SDS011;44470;53.206;-6.106;2023-05-10T03:31:02;1.17;;;0.67;;
58689;SDS011;44470;53.206;-6.106;2023-05-10T03:33:30;0.80;;;0.70;;
58689;SDS011;44470;53.206;-6.106;2023-05-10T03:35:55;1.20;;;0.82;;
58689;SDS011;44470;53.206;-6.106;2023-05-10T03:38:21;1.88;;;0.90;;
58689;SDS011;44470;53.206;-6.106;2023-05-10T03:40:46;1.25;;;0.65;;
58689;SDS011;44470;53.206;-6.106;2023-05-10T03:43:12;1.15;;;0.57;;
58689;SDS011;44470;53.206;-6.106;2023-05-10T03:45:37;2.03;;;1.00;;
58689;SDS011;44470;53.206;-6.106;2023-05-10T03:48:03;0.57;;;0.57;;
58689;SDS011;44470;53.206;-6.106;2023-05-10T03:50:29;2.17;;;0.60;;
58689;SDS011;44470;53.206;-6.106;2023-05-10T03:52:54;2.00;;;0.80;;
58689;SDS011;44470;53.206;-6.106;2023-05-10T03:55:20;1.45;;;0.65;;
58689;SDS011;44470;53.206;-6.106;2023-05-10T03:57:45;0.98;;;0.70;;
58689;SDS011;44470;53.206;-6.106;2023-05-10T04:00:11;1.45;;;0.90;;
58689;SDS011;44470;53.206;-6.106;2023-05-10T04:02:40;1.20;;;0.60;;
58689;SDS011;44470;53.206;-6.106;2023-05-10T04:05:08;1.52;;;0.40;;
58689;SDS011;44470;53.206;-6.106;2023-05-10T04:07:35;2.38;;;0.90;;
58689;SDS011;44470;53.206;-6.106;2023-05-10T04:10:00;1.25;;;0.60;;
58689;SDS011;44470;53.206;-6.106;2023-05-10T04:12:26;1.38;;;0.80;;
58689;SDS011;44470;53.206;-6.106;2023-05-10T04:14:51;0.93;;;0.50;;
58689;SDS011;44470;53.206;-6.106;2023-05-10T04:17:17;3.00;;;1.00;;
58689;SDS011;44470;53.206;-6.106;2023-05-10T04:19:42;1.13;;;0.40;;
58689;SDS011;44470;53.206;-6.106;2023-05-10T04:22:08;0.68;;;0.50;;
58689;SDS011;44470;53.206;-6.106;2023-05-10T04:24:33;0.85;;;0.60;;
58689;SDS011;44470;53.206;-6.106;2023-05-10T04:26:59;1.05;;;0.60;;
58689;SDS011;44470;53.206;-6.106;2023-05-10T04:29:25;0.70;;;0.70;;
58689;SDS011;44470;53.206;-6.106;2023-05-10T04:31:51;0.88;;;0.50;;
58689;SDS011;44470;53.206;-6.106;2023-05-10T04:34:17;2.60;;;0.88;;
58689;SDS011;44470;53.206;-6.106;2023-05-10T04:36:42;1.13;;;0.60;;
58689;SDS011;44470;53.206;-6.106;2023-05-10T04:39:08;1.50;;;0.60;;
58689;SDS011;44470;53.206;-6.106;2023-05-10T04:41:34;0.85;;;0.60;;
58689;SDS011;44470;53.206;-6.106;2023-05-10T04:44:00;2.67;;;0.75;;
58689;SDS011;44470;53.206;-6.106;2023-05-10T04:46:25;1.10;;;0.50;;
58689;SDS011;44470;53.206;-6.106;2023-05-10T04:48:51;0.95;;;0.50;;
58689;SDS011;44470;53.206;-6.106;2023-05-10T04:51:16;0.90;;;0.60;;
58689;SDS011;44470;53.206;-6.106;2023-05-10T04:53:42;1.83;;;0.70;;
58689;SDS011;44470;53.206;-6.106;2023-05-10T04:56:07;0.90;;;0.43;;
58689;SDS011;44470;53.206;-6.106;2023-05-10T04:58:33;0.85;;;0.50;;
58689;SDS011;44470;53.206;-6.106;2023-05-10T05:01:08;2.15;;;0.88;;
58689;SDS011;44470;53.206;-6.106;2023-05-10T05:03:34;1.13;;;0.43;;
58689;SDS011;44470;53.206;-6.106;2023-05-10T05:06:00;0.98;;;0.63;;
58689;SDS011;44470;53.206;-6.106;2023-05-10T05:08:26;1.15;;;0.40;;
58689;SDS011;44470;53.206;-6.106;2023-05-10T05:10:51;2.25;;;0.88;;
58689;SDS011;44470;53.206;-6.106;2023-05-10T05:13:17;0.75;;;0.50;;
58689;SDS011;44470;53.206;-6.106;2023-05-10T05:15:43;0.90;;;0.60;;
58689;SDS011;44470;53.206;-6.106;2023-05-10T05:18:08;1.13;;;0.70;;
58689;SDS011;44470;53.206;-6.106;2023-05-10T05:20:34;0.30;;;0.30;;
58689;SDS011;44470;53.206;-6.106;2023-05-10T05:23:00;1.00;;;0.57;;
58689;SDS011;44470;53.206;-6.106;2023-05-10T05:25:26;0.73;;;0.50;;
58689;SDS011;44470;53.206;-6.106;2023-05-10T05:27:51;0.65;;;0.50;;
58689;SDS011;44470;53.206;-6.106;2023-05-10T05:30:17;0.80;;;0.52;;
58689;SDS011;44470;53.206;-6.106;2023-05-10T05:32:42;1.02;;;0.38;;
58689;SDS011;44470;53.206;-6.106;2023-05-10T05:35:08;0.77;;;0.30;;
58689;SDS011;44470;53.206;-6.106;2023-05-10T05:37:33;0.95;;;0.40;;
58689;SDS011;44470;53.206;-6.106;2023-05-10T05:40:00;1.30;;;0.40;;
58689;SDS011;44470;53.206;-6.106;2023-05-10T05:42:26;0.75;;;0.68;;
58689;SDS011;44470;53.206;-6.106;2023-05-10T05:44:52;0.60;;;0.55;;
58689;SDS011;44470;53.206;-6.106;2023-05-10T05:47:18;0.77;;;0.52;;
58689;SDS011;44470;53.206;-6.106;2023-05-10T05:49:43;0.63;;;0.63;;
58689;SDS011;44470;53.206;-6.106;2023-05-10T05:52:11;0.90;;;0.73;;
58689;SDS011;44470;53.206;-6.106;2023-05-10T05:54:36;0.52;;;0.50;;
58689;SDS011;44470;53.206;-6.106;2023-05-10T05:57:02;0.50;;;0.30;;
58689;SDS011;44470;53.206;-6.106;2023-05-10T05:59:27;0.38;;;0.30;;
58689;SDS011;44470;53.206;-6.106;2023-05-10T06:01:53;1.27;;;0.55;;
58689;SDS011;44470;53.206;-6.106;2023-05-10T06:04:19;1.08;;;0.47;;
58689;SDS011;44470;53.206;-6.106;2023-05-10T06:06:44;0.52;;;0.50;;
58689;SDS011;44470;53.206;-6.106;2023-05-10T06:09:10;0.90;;;0.50;;
58689;SDS011;44470;53.206;-6.106;2023-05-10T06:11:36;0.40;;;0.40;;
58689;SDS011;44470;53.206;-6.106;2023-05-10T06:14:02;0.40;;;0.35;;
58689;SDS011;44470;53.206;-6.106;2023-05-10T06:16:33;0.50;;;0.30;;
58689;SDS011;44470;53.206;-6.106;2023-05-10T06:18:59;0.98;;;0.40;;
58689;SDS011;44470;53.206;-6.106;2023-05-10T06:21:24;1.02;;;0.35;;
58689;SDS011;44470;53.206;-6.106;2023-05-10T06:23:50;0.63;;;0.30;;
58689;SDS011;44470;53.206;-6.106;2023-05-10T06:26:16;0.40;;;0.40;;
58689;SDS011;44470;53.206;-6.106;2023-05-10T06:28:42;0.65;;;0.43;;
58689;SDS011;44470;53.206;-6.106;2023-05-10T06:31:07;2.05;;;0.38;;
58689;SDS011;44470;53.206;-6.106;2023-05-10T06:33:33;2.05;;;0.40;;
58689;SDS011;44470;53.206;-6.106;2023-05-10T06:35:59;0.43;;;0.38;;
58689;SDS011;44470;53.206;-6.106;2023-05-10T06:38:24;0.95;;;0.55;;
58689;SDS011;44470;53.206;-6.106;2023-05-10T06:40:51;0.77;;;0.52;;
58689;SDS011;44470;53.206;-6.106;2023-05-10T06:43:16;0.20;;;0.20;;
58689;SDS011;44470;53.206;-6.106;2023-05-10T06:45:42;0.57;;;0.30;;
58689;SDS011;44470;53.206;-6.106;2023-05-10T06:48:10;0.30;;;0.30;;
58689;SDS011;44470;53.206;-6.106;2023-05-10T06:50:35;0.50;;;0.50;;
58689;SDS011;44470;53.206;-6.106;2023-05-10T06:53:01;0.50;;;0.30;;
58689;SDS011;44470;53.206;-6.106;2023-05-10T06:55:27;0.82;;;0.43;;
58689;SDS011;44470;53.206;-6.106;2023-05-10T06:57:53;1.77;;;0.40;;
58689;SDS011;44470;53.206;-6.106;2023-05-10T07:00:19;0.77;;;0.40;;
58689;SDS011;44470;53.206;-6.106;2023-05-10T07:02:45;0.95;;;0.25;;
58689;SDS011;44470;53.206;-6.106;2023-05-10T07:05:11;0.63;;;0.43;;
58689;SDS011;44470;53.206;-6.106;2023-05-10T07:07:37;0.20;;;0.20;;
58689;SDS011;44470;53.206;-6.106;2023-05-10T07:10:03;0.20;;;0.13;;
58689;SDS011;44470;53.206;-6.106;2023-05-10T07:12:30;0.38;;;0.30;;
58689;SDS011;44470;53.206;-6.106;2023-05-10T07:14:55;0.68;;;0.50;;
58689;SDS011;44470;53.206;-6.106;2023-05-10T07:17:21;0.40;;;0.40;;
58689;SDS011;44470;53.206;-6.106;2023-05-10T07:19:49;0.30;;;0.30;;
58689;SDS011;44470;53.206;-6.106;2023-05-10T07:22:15;0.63;;;0.40;;
58689;SDS011;44470;53.206;-6.106;2023-05-10T07:24:41;0.28;;;0.28;;
58689;SDS011;44470;53.206;-6.106;2023-05-10T07:27:07;1.33;;;0.32;;
58689;SDS011;44470;53.206;-6.106;2023-05-10T07:29:34;0.80;;;0.32;;
58689;SDS011;44470;53.206;-6.106;2023-05-10T07:32:00;1.08;;;0.35;;
58689;SDS011;44470;53.206;-6.106;2023-05-10T07:34:26;0.65;;;0.45;;
58689;SDS011;44470;53.206;-6.106;2023-05-10T07:36:51;0.40;;;0.35;;
58689;SDS011;44470;53.206;-6.106;2023-05-10T07:39:17;0.40;;;0.40;;
58689;SDS011;44470;53.206;-6.106;2023-05-10T07:41:43;0.80;;;0.60;;
58689;SDS011;44470;53.206;-6.106;2023-05-10T07:44:08;0.20;;;0.20;;
58689;SDS011;44470;53.206;-6.106;2023-05-10T07:46:34;0.45;;;0.30;;
58689;SDS011;44470;53.206;-6.106;2023-05-10T07:48:59;0.85;;;0.30;;
58689;SDS011;44470;53.206;-6.106;2023-05-10T07:51:25;0.60;;;0.30;;
58689;SDS011;44470;53.206;-6.106;2023-05-10T07:53:50;0.70;;;0.32;;
58689;SDS011;44470;53.206;-6.106;2023-05-10T07:56:23;0.45;;;0.30;;
58689;SDS011;44470;53.206;-6.106;2023-05-10T07:58:57;0.20;;;0.20;;
58689;SDS011;44470;53.206;-6.106;2023-05-10T08:01:24;1.15;;;0.30;;
58689;SDS011;44470;53.206;-6.106;2023-05-10T08:03:50;0.75;;;0.32;;
58689;SDS011;44470;53.206;-6.106;2023-05-10T08:06:19;2.53;;;0.35;;
58689;SDS011;44470;53.206;-6.106;2023-05-10T08:08:46;4.65;;;0.47;;
58689;SDS011;44470;53.206;-6.106;2023-05-10T08:11:19;9.10;;;1.10;;
58689;SDS011;44470;53.206;-6.106;2023-05-10T08:16:11;6.25;;;1.10;;
58689;SDS011;44470;53.206;-6.106;2023-05-10T08:18:37;4.10;;;0.70;;
58689;SDS011;44470;53.206;-6.106;2023-05-10T08:21:03;6.47;;;0.98;;
58689;SDS011;44470;53.206;-6.106;2023-05-10T08:23:29;5.75;;;0.70;;
58689;SDS011;44470;53.206;-6.106;2023-05-10T08:25:55;3.30;;;0.52;;
58689;SDS011;44470;53.206;-6.106;2023-05-10T08:28:20;3.03;;;0.50;;
58689;SDS011;44470;53.206;-6.106;2023-05-10T08:30:46;5.32;;;0.60;;
58689;SDS011;44470;53.206;-6.106;2023-05-10T08:33:11;4.88;;;0.57;;
58689;SDS011;44470;53.206;-6.106;2023-05-10T08:35:37;2.90;;;0.65;;
58689;SDS011;44470;53.206;-6.106;2023-05-10T08:38:02;1.05;;;0.47;;
58689;SDS011;44470;53.206;-6.106;2023-05-10T08:40:28;3.45;;;0.73;;
58689;SDS011;44470;53.206;-6.106;2023-05-10T08:42:55;2.65;;;0.50;;
58689;SDS011;44470;53.206;-6.106;2023-05-10T08:45:28;6.72;;;0.80;;
58689;SDS011;44470;53.206;-6.106;2023-05-10T08:47:58;4.22;;;0.60;;
58689;SDS011;44470;53.206;-6.106;2023-05-10T08:50:26;2.55;;;0.43;;
58689;SDS011;44470;53.206;-6.106;2023-05-10T08:52:53;2.35;;;0.55;;
58689;SDS011;44470;53.206;-6.106;2023-05-10T08:57:49;8.93;;;0.80;;
58689;SDS011;44470;53.206;-6.106;2023-05-10T09:00:15;3.80;;;1.23;;
58689;SDS011;44470;53.206;-6.106;2023-05-10T09:02:43;5.25;;;1.25;;
58689;SDS011;44470;53.206;-6.106;2023-05-10T09:05:10;6.55;;;0.88;;
58689;SDS011;44470;53.206;-6.106;2023-05-10T09:07:37;3.53;;;0.88;;
58689;SDS011;44470;53.206;-6.106;2023-05-10T09:10:03;6.57;;;0.88;;
58689;SDS011;44470;53.206;-6.106;2023-05-10T09:12:29;4.13;;;0.82;;
58689;SDS011;44470;53.206;-6.106;2023-05-10T09:14:55;4.82;;;0.90;;
58689;SDS011;44470;53.206;-6.106;2023-05-10T09:17:23;3.03;;;0.60;;
58689;SDS011;44470;53.206;-6.106;2023-05-10T09:19:49;3.65;;;0.77;;
58689;SDS011;44470;53.206;-6.106;2023-05-10T09:22:14;3.25;;;0.68;;
58689;SDS011;44470;53.206;-6.106;2023-05-10T09:24:42;9.10;;;1.20;;
58689;SDS011;44470;53.206;-6.106;2023-05-10T09:27:10;13.23;;;1.83;;
58689;SDS011;44470;53.206;-6.106;2023-05-10T09:29:42;6.13;;;1.20;;
58689;SDS011;44470;53.206;-6.106;2023-05-10T09:32:08;9.68;;;1.30;;
58689;SDS011;44470;53.206;-6.106;2023-05-10T09:34:33;8.07;;;1.35;;
58689;SDS011;44470;53.206;-6.106;2023-05-10T09:37:05;9.50;;;1.20;;
58689;SDS011;44470;53.206;-6.106;2023-05-10T09:39:31;10.32;;;1.23;;
58689;SDS011;44470;53.206;-6.106;2023-05-10T09:42:08;4.88;;;1.13;;
58689;SDS011;44470;53.206;-6.106;2023-05-10T09:44:34;9.73;;;1.42;;
58689;SDS011;44470;53.206;-6.106;2023-05-10T09:47:03;4.35;;;0.98;;
58689;SDS011;44470;53.206;-6.106;2023-05-10T09:49:29;4.30;;;1.00;;
58689;SDS011;44470;53.206;-6.106;2023-05-10T09:55:43;3.72;;;0.80;;
58689;SDS011;44470;53.206;-6.106;2023-05-10T09:58:11;7.63;;;0.90;;
58689;SDS011;44470;53.206;-6.106;2023-05-10T10:00:39;6.68;;;1.10;;
58689;SDS011;44470;53.206;-6.106;2023-05-10T10:03:06;8.40;;;1.20;;
58689;SDS011;44470;53.206;-6.106;2023-05-10T10:05:39;7.40;;;1.23;;
58689;SDS011;44470;53.206;-6.106;2023-05-10T10:08:05;10.20;;;1.42;;
58689;SDS011;44470;53.206;-6.106;2023-05-10T10:10:32;5.97;;;1.75;;
58689;SDS011;44470;53.206;-6.106;2023-05-10T10:12:58;6.43;;;1.13;;
58689;SDS011;44470;53.206;-6.106;2023-05-10T10:15:24;10.55;;;1.17;;
58689;SDS011;44470;53.206;-6.106;2023-05-10T10:17:50;11.80;;;1.27;;
58689;SDS011;44470;53.206;-6.106;2023-05-10T10:20:17;5.65;;;0.65;;
58689;SDS011;44470;53.206;-6.106;2023-05-10T10:22:43;6.85;;;1.05;;
58689;SDS011;44470;53.206;-6.106;2023-05-10T10:25:12;11.60;;;1.65;;
58689;SDS011;44470;53.206;-6.106;2023-05-10T10:33:51;8.43;;;1.00;;
58689;SDS011;44470;53.206;-6.106;2023-05-10T10:35:47;5.50;;;1.15;;
58689;SDS011;44470;53.206;-6.106;2023-05-10T10:38:13;3.35;;;0.65;;
58689;SDS011;44470;53.206;-6.106;2023-05-10T10:40:39;4.25;;;0.63;;
58689;SDS011;44470;53.206;-6.106;2023-05-10T10:43:21;4.50;;;0.85;;
58689;SDS011;44470;53.206;-6.106;2023-05-10T10:48:39;5.05;;;0.93;;
58689;SDS011;44470;53.206;-6.106;2023-05-10T10:51:16;5.00;;;0.98;;
58689;SDS011;44470;53.206;-6.106;2023-05-10T10:53:42;5.97;;;1.10;;
58689;SDS011;44470;53.206;-6.106;2023-05-10T10:56:09;8.57;;;1.13;;
58689;SDS011;44470;53.206;-6.106;2023-05-10T10:58:36;9.98;;;1.20;;
58689;SDS011;44470;53.206;-6.106;2023-05-10T11:01:18;22.42;;;2.53;;
58689;SDS011;44470;53.206;-6.106;2023-05-10T11:06:32;25.13;;;2.17;;
58689;SDS011;44470;53.206;-6.106;2023-05-10T11:08:58;16.30;;;2.33;;
58689;SDS011;44470;53.206;-6.106;2023-05-10T11:11:24;28.25;;;3.08;;
58689;SDS011;44470;53.206;-6.106;2023-05-10T11:13:50;38.78;;;3.78;;
58689;SDS011;44470;53.206;-6.106;2023-05-10T11:22:11;46.33;;;5.95;;
58689;SDS011;44470;53.206;-6.106;2023-05-10T11:24:29;37.40;;;4.40;;
58689;SDS011;44470;53.206;-6.106;2023-05-10T11:26:55;52.92;;;6.07;;
58689;SDS011;44470;53.206;-6.106;2023-05-10T11:29:21;57.90;;;6.65;;
58689;SDS011;44470;53.206;-6.106;2023-05-10T11:31:47;53.30;;;5.80;;
58689;SDS011;44470;53.206;-6.106;2023-05-10T11:34:23;89.22;;;7.60;;
58689;SDS011;44470;53.206;-6.106;2023-05-10T11:36:56;67.95;;;6.68;;
58689;SDS011;44470;53.206;-6.106;2023-05-10T11:39:26;68.75;;;6.60;;
58689;SDS011;44470;53.206;-6.106;2023-05-10T11:41:55;62.80;;;5.93;;
58689;SDS011;44470;53.206;-6.106;2023-05-10T11:44:22;62.65;;;7.20;;
58689;SDS011;44470;53.206;-6.106;2023-05-10T11:46:49;57.92;;;6.55;;
58689;SDS011;44470;53.206;-6.106;2023-05-10T11:49:14;45.90;;;5.15;;
58689;SDS011;44470;53.206;-6.106;2023-05-10T11:51:40;48.45;;;5.72;;
58689;SDS011;44470;53.206;-6.106;2023-05-10T11:54:08;49.65;;;5.13;;
58689;SDS011;44470;53.206;-6.106;2023-05-10T11:56:39;37.05;;;4.85;;
58689;SDS011;44470;53.206;-6.106;2023-05-10T11:59:06;40.95;;;5.55;;
58689;SDS011;44470;53.206;-6.106;2023-05-10T12:01:33;39.63;;;4.90;;
58689;SDS011;44470;53.206;-6.106;2023-05-10T12:03:58;43.90;;;5.05;;
58689;SDS011;44470;53.206;-6.106;2023-05-10T12:06:29;36.05;;;4.38;;
58689;SDS011;44470;53.206;-6.106;2023-05-10T12:09:05;35.20;;;4.00;;
58689;SDS011;44470;53.206;-6.106;2023-05-10T12:11:31;34.22;;;4.13;;
58689;SDS011;44470;53.206;-6.106;2023-05-10T12:13:57;36.33;;;4.15;;
58689;SDS011;44470;53.206;-6.106;2023-05-10T12:16:23;33.35;;;4.57;;
58689;SDS011;44470;53.206;-6.106;2023-05-10T12:18:51;33.10;;;4.05;;
58689;SDS011;44470;53.206;-6.106;2023-05-10T12:21:17;37.45;;;4.50;;
58689;SDS011;44470;53.206;-6.106;2023-05-10T12:23:45;39.28;;;4.32;;
58689;SDS011;44470;53.206;-6.106;2023-05-10T12:26:12;28.60;;;4.07;;
58689;SDS011;44470;53.206;-6.106;2023-05-10T12:28:38;43.92;;;4.68;;
58689;SDS011;44470;53.206;-6.106;2023-05-10T12:31:05;43.42;;;5.03;;
58689;SDS011;44470;53.206;-6.106;2023-05-10T12:36:09;35.83;;;4.25;;
58689;SDS011;44470;53.206;-6.106;2023-05-10T12:38:37;51.38;;;5.18;;
58689;SDS011;44470;53.206;-6.106;2023-05-10T12:41:08;52.30;;;6.07;;
58689;SDS011;44470;53.206;-6.106;2023-05-10T12:43:35;57.13;;;5.57;;
58689;SDS011;44470;53.206;-6.106;2023-05-10T12:46:04;49.47;;;5.57;;
58689;SDS011;44470;53.206;-6.106;2023-05-10T12:48:31;44.47;;;4.97;;
58689;SDS011;44470;53.206;-6.106;2023-05-10T12:50:58;44.90;;;5.63;;
58689;SDS011;44470;53.206;-6.106;2023-05-10T12:53:24;44.67;;;5.00;;
58689;SDS011;44470;53.206;-6.106;2023-05-10T12:55:49;43.65;;;5.03;;
58689;SDS011;44470;53.206;-6.106;2023-05-10T12:58:15;41.50;;;4.55;;
58689;SDS011;44470;53.206;-6.106;2023-05-10T13:00:40;33.05;;;4.93;;
58689;SDS011;44470;53.206;-6.106;2023-05-10T13:03:06;28.92;;;4.13;;
58689;SDS011;44470;53.206;-6.106;2023-05-10T13:05:32;29.80;;;4.40;;
58689;SDS011;44470;53.206;-6.106;2023-05-10T13:07:58;29.40;;;4.97;;
58689;SDS011;44470;53.206;-6.106;2023-05-10T13:10:23;19.60;;;3.45;;
58689;SDS011;44470;53.206;-6.106;2023-05-10T13:12:50;19.02;;;3.38;;
58689;SDS011;44470;53.206;-6.106;2023-05-10T13:15:15;21.15;;;3.42;;
58689;SDS011;44470;53.206;-6.106;2023-05-10T13:17:41;18.58;;;2.58;;
58689;SDS011;44470;53.206;-6.106;2023-05-10T13:20:07;20.33;;;2.83;;
58689;SDS011;44470;53.206;-6.106;2023-05-10T13:22:34;30.40;;;3.40;;
58689;SDS011;44470;53.206;-6.106;2023-05-10T13:25:00;20.30;;;2.53;;
58689;SDS011;44470;53.206;-6.106;2023-05-10T13:27:26;27.75;;;3.72;;
58689;SDS011;44470;53.206;-6.106;2023-05-10T13:29:51;33.25;;;3.70;;
58689;SDS011;44470;53.206;-6.106;2023-05-10T13:32:17;29.45;;;3.70;;
58689;SDS011;44470;53.206;-6.106;2023-05-10T13:34:42;26.45;;;2.78;;
58689;SDS011;44470;53.206;-6.106;2023-05-10T13:37:08;24.92;;;2.70;;
58689;SDS011;44470;53.206;-6.106;2023-05-10T13:39:37;24.08;;;2.80;;
58689;SDS011;44470;53.206;-6.106;2023-05-10T13:42:03;24.10;;;3.03;;
58689;SDS011;44470;53.206;-6.106;2023-05-10T13:44:29;36.25;;;3.28;;
58689;SDS011;44470;53.206;-6.106;2023-05-10T13:46:55;38.60;;;4.00;;
58689;SDS011;44470;53.206;-6.106;2023-05-10T13:49:21;36.42;;;3.67;;
58689;SDS011;44470;53.206;-6.106;2023-05-10T13:51:47;34.95;;;3.83;;
58689;SDS011;44470;53.206;-6.106;2023-05-10T13:54:12;34.20;;;3.78;;
58689;SDS011;44470;53.206;-6.106;2023-05-10T13:56:38;36.45;;;4.82;;
58689;SDS011;44470;53.206;-6.106;2023-05-10T13:59:04;39.38;;;4.63;;
58689;SDS011;44470;53.206;-6.106;2023-05-10T14:01:29;35.38;;;4.38;;
58689;SDS011;44470;53.206;-6.106;2023-05-10T14:03:56;28.50;;;3.72;;
58689;SDS011;44470;53.206;-6.106;2023-05-10T14:06:21;36.72;;;3.33;;
58689;SDS011;44470;53.206;-6.106;2023-05-10T14:08:47;31.38;;;3.33;;
58689;SDS011;44470;53.206;-6.106;2023-05-10T14:11:12;28.85;;;4.13;;
58689;SDS011;44470;53.206;-6.106;2023-05-10T14:13:38;26.75;;;4.13;;
58689;SDS011;44470;53.206;-6.106;2023-05-10T14:16:04;39.28;;;4.82;;
58689;SDS011;44470;53.206;-6.106;2023-05-10T14:18:30;24.98;;;3.30;;
58689;SDS011;44470;53.206;-6.106;2023-05-10T14:20:55;25.77;;;3.13;;
58689;SDS011;44470;53.206;-6.106;2023-05-10T14:23:21;26.95;;;2.90;;
58689;SDS011;44470;53.206;-6.106;2023-05-10T14:28:17;29.73;;;3.67;;
58689;SDS011;44470;53.206;-6.106;2023-05-10T14:30:43;22.63;;;2.88;;
58689;SDS011;44470;53.206;-6.106;2023-05-10T14:33:09;25.45;;;2.88;;
58689;SDS011;44470;53.206;-6.106;2023-05-10T14:35:35;28.15;;;3.78;;
58689;SDS011;44470;53.206;-6.106;2023-05-10T14:38:01;21.83;;;2.70;;
58689;SDS011;44470;53.206;-6.106;2023-05-10T14:40:28;18.90;;;2.95;;
58689;SDS011;44470;53.206;-6.106;2023-05-10T14:42:54;17.10;;;2.85;;
58689;SDS011;44470;53.206;-6.106;2023-05-10T14:45:20;17.23;;;2.50;;
58689;SDS011;44470;53.206;-6.106;2023-05-10T14:47:46;23.27;;;2.65;;
58689;SDS011;44470;53.206;-6.106;2023-05-10T14:50:11;27.75;;;3.60;;
58689;SDS011;44470;53.206;-6.106;2023-05-10T14:52:37;39.83;;;4.05;;
58689;SDS011;44470;53.206;-6.106;2023-05-10T14:55:02;39.05;;;4.18;;
58689;SDS011;44470;53.206;-6.106;2023-05-10T14:57:28;40.03;;;4.80;;
58689;SDS011;44470;53.206;-6.106;2023-05-10T14:59:55;30.77;;;3.78;;
58689;SDS011;44470;53.206;-6.106;2023-05-10T15:02:22;34.15;;;3.40;;
58689;SDS011;44470;53.206;-6.106;2023-05-10T15:04:47;27.70;;;3.38;;
58689;SDS011;44470;53.206;-6.106;2023-05-10T15:07:13;28.90;;;3.70;;
58689;SDS011;44470;53.206;-6.106;2023-05-10T15:09:40;40.92;;;4.38;;
58689;SDS011;44470;53.206;-6.106;2023-05-10T15:12:06;39.17;;;3.58;;
58689;SDS011;44470;53.206;-6.106;2023-05-10T15:14:31;37.55;;;4.20;;
58689;SDS011;44470;53.206;-6.106;2023-05-10T15:16:58;34.78;;;4.97;;